Windber, Pennsylvania
Current Conditions -  °F | °C
As of 1:06 AM on Sunday 21 Dec 2014 (Local Time) from KJST Reporting Station
Overcast Overcast  
Wind Chill: 23°   Ceiling: 2100
Heat Index: 23°   Visibility: 9mi
Dew Point: 18°   Wind: 0mph
Humidity: 81%   Direction: NA
Pressure: 30.17"   Gusts: NA
Location:  40.24°N, 78.84°W
Report Text: KJST 210606Z AUTO 00000KT 9SM BKN021 OVC085 M05/M08 A3017 RMK AO2 T10501078
Loading
Personal Weather Stations






























Interactive Weather Map New forecast layout! Learn more

10-Day Weather Forecast

Advertisements
Track Severe Weather on mobile